Ramona, OK (74061)

12:50 PM CST on December 25, 2014 (GMT -0600)
KOKHOGSH1 | Change Station
CLOSE
Current Station
Personal Weather Station
Location: Hogshooter, OK
Elevation: 790 ft
Nearby Weather Stations
Active Advisory: Wind Advisory

Elev 790 ft 36.69 °N, 95.83 °W | Updated 36 seconds ago

Partly Cloudy
Partly Cloudy
54.9 °F
Feels Like 54.9 °F
N
17.0
Wind Variable Wind from SSW
Gusts 17.0 mph

Today
High -- | Low -- °F
--% Chance of Precip.
Yesterday
High -- | Low -- °F
Precip. -- in
7:33 AM 5:13 PM
Waxing Crescent, 18% visible
Pressure 29.82 in
Visibility 10.0 miles
Clouds Clear
Dew Point 32 °F
Humidity 42%
Rainfall 0.00 in
Snow Depth Not available.
UV 3 out of 12
Pollen 6.00 out of 12
Air Quality Not available.
Flu Activity Not available.
METAR KBVO 251753Z AUTO 18014G22KT 10SM CLR 11/M02 A2982 RMK AO2 PK WND 17028/1734 SLP098 T01111022 10117 21017 58012

More Conditions Fewer Conditions

Pressure 29.82 in
Visibility 10.0 miles
Clouds Clear
Dew Point 32 °F
Humidity 42%
Rainfall 0.00 in
Snow Depth Not available.
UV 3 out of 12
Pollen 6.00 out of 12
Air Quality Not available.
Flu Activity Not available.
METAR KBVO 251753Z AUTO 18014G22KT 10SM CLR 11/M02 A2982 RMK AO2 PK WND 17028/1734 SLP098 T01111022 10117 21017 58012

More Conditions Fewer Conditions

10-Day Weather Forecast

Almanac

Astronomy

Dec. 25, 2014 Rise Set
Actual Time
Civil Twilight
Nautical Twilight
Astronomical Twilight
Moon
Length of Visible Light
Length of Day
Tomorrow will be .
, % of the Moon is Illuminated

Today's Extremes

State Highs State Lows

Community

WunderPhotos

Upload Photos

1,780,358 photos uploaded!

WunderBlogs® & News

Nearby

Air Quality

  Air Quality AQ Index Pollutant
Not available.

Snow Depth

Station Depth Elevation

Earthquake Activity

City Distance Mag. Time & Date
Minimum magnitude displayed is 2.5.

Coastal Water Temperatures

Place Temperature

Nearby Weather Stations